Time;durP1;ratioP1;P1;durP2;ratioP2;P2;SDS_P1;SDS_P2;PMS_P1;PMS_P2;Temp;Humidity;BMP_temperature;BMP_pressure;BME280_temperature;BME280_humidity;BME280_pressure;Samples;Min_cycle;Max_cycle;Signal;HPM_P1;HPM_P2
2022/04/07 00:01:48;;;;;;;3.45;2.42;;;;;;;9.32;81.55;99174.47;5086940;28;20134;-67
2022/04/07 00:04:16;;;;;;;3.80;2.13;;;;;;;9.32;81.35;99163.94;5089231;28;20053;-67
2022/04/07 00:06:43;;;;;;;3.28;2.30;;;;;;;9.33;81.30;99163.84;5087550;28;20730;-67
2022/04/07 00:09:11;;;;;;;3.72;2.00;;;;;;;9.34;80.91;99159.47;5091389;28;20036;-68
2022/04/07 00:11:39;;;;;;;2.90;2.00;;;;;;;9.36;80.76;99157.59;5088681;28;20052;-68
2022/04/07 00:14:07;;;;;;;3.92;1.70;;;;;;;9.37;80.93;99142.66;5086681;28;20043;-68
2022/04/07 00:16:35;;;;;;;5.30;1.85;;;;;;;9.42;80.45;99140.63;5093721;28;20049;-68
2022/04/07 00:19:03;;;;;;;3.83;1.70;;;;;;;9.44;79.74;99136.16;5093170;28;20041;-67
2022/04/07 00:21:35;;;;;;;2.55;1.50;;;;;;;9.46;79.61;99134.28;5094380;28;20040;-69
2022/04/07 00:24:05;;;;;;;2.92;1.35;;;;;;;9.45;79.25;99136.09;5084995;28;20049;-67
2022/04/07 00:26:34;;;;;;;5.82;1.58;;;;;;;9.46;79.15;99126.41;5090755;28;20072;-68
2022/04/07 00:29:02;;;;;;;3.30;1.60;;;;;;;9.46;78.80;99115.88;5093471;28;20154;-66
2022/04/07 00:31:39;;;;;;;4.32;1.40;;;;;;;9.45;78.58;99116.81;5091932;28;20052;-67
2022/04/07 00:34:09;;;;;;;3.35;0.90;;;;;;;9.44;78.24;99107.22;5093563;28;20529;-65
2022/04/07 00:36:36;;;;;;;3.50;1.38;;;;;;;9.43;78.41;99106.38;5092877;28;20136;-65
2022/04/07 00:39:03;;;;;;;2.10;0.98;;;;;;;9.41;78.51;99105.59;5093056;28;20047;-66
2022/04/07 00:41:31;;;;;;;3.33;1.27;;;;;;;9.41;77.73;99095.09;5093177;28;20051;-67
2022/04/07 00:43:58;;;;;;;3.75;1.20;;;;;;;9.42;78.16;99103.81;5088904;28;20044;-66
2022/04/07 00:46:25;;;;;;;4.03;1.00;;;;;;;9.43;77.72;99092.34;5089074;28;20040;-68
2022/04/07 00:48:52;;;;;;;3.17;1.20;;;;;;;9.43;77.90;99087.09;5092933;28;20079;-67
2022/04/07 00:51:20;;;;;;;4.15;1.20;;;;;;;9.43;77.97;99080.06;5092880;28;20040;-68
2022/04/07 00:53:47;;;;;;;3.60;1.13;;;;;;;9.43;78.03;99081.84;5092843;28;20036;-67
2022/04/07 00:56:15;;;;;;;2.95;1.00;;;;;;;9.41;77.90;99079.31;5093097;28;20033;-67
2022/04/07 00:58:45;;;;;;;5.47;1.23;;;;;;;9.41;78.27;99057.44;5091420;28;20550;-65
2022/04/07 01:01:13;;;;;;;3.55;1.10;;;;;;;9.38;78.09;99055.78;5090359;28;20043;-67
2022/04/07 01:03:41;;;;;;;5.75;1.17;;;;;;;9.37;78.24;99061.97;5092880;28;20119;-68
2022/04/07 01:06:08;;;;;;;4.05;1.27;;;;;;;9.36;78.55;99049.75;5092173;28;20502;-67
2022/04/07 01:08:35;;;;;;;4.95;1.33;;;;;;;9.39;78.87;99046.13;5086686;28;20131;-68
2022/04/07 01:11:06;;;;;;;3.67;1.38;;;;;;;9.39;78.96;99041.72;5079427;28;20128;-69
2022/04/07 01:13:50;;;;;;;4.60;1.23;;;;;;;9.38;78.82;99039.16;5092091;28;20047;-68
2022/04/07 01:16:21;;;;;;;4.55;1.70;;;;;;;9.39;79.00;99025.94;5092889;28;20090;-67
2022/04/07 01:18:51;;;;;;;6.10;1.63;;;;;;;9.40;78.84;99025.00;5092491;28;20040;-68
2022/04/07 01:21:19;;;;;;;6.65;1.48;;;;;;;9.41;78.80;99020.59;5090739;28;20047;-66
2022/04/07 01:24:11;;;;;;;6.45;1.65;;;;;;;9.41;78.73;99017.97;5092176;28;20423;-66
2022/04/07 01:26:45;;;;;;;7.20;1.88;;;;;;;9.39;79.07;99023.31;5089253;28;20072;-66
2022/04/07 01:29:16;;;;;;;5.05;1.60;;;;;;;9.40;78.79;99008.38;5092666;28;20076;-66
2022/04/07 01:31:43;;;;;;;5.85;1.92;;;;;;;9.38;78.84;99012.88;5091579;28;20049;-67
2022/04/07 01:34:17;;;;;;;4.88;1.75;;;;;;;9.37;78.71;99000.66;5083396;28;20045;-66
2022/04/07 01:36:51;;;;;;;5.25;1.52;;;;;;;9.36;78.21;98989.28;5090413;28;20032;-67
2022/04/07 01:39:25;;;;;;;5.25;1.80;;;;;;;9.35;78.07;98992.00;5082743;28;20517;-67
2022/04/07 01:41:54;;;;;;;5.38;1.63;;;;;;;9.32;78.77;98996.47;5087786;28;20048;-66
2022/04/07 01:44:25;;;;;;;6.03;1.85;;;;;;;9.32;78.54;98993.03;5089246;28;20032;-67
2022/04/07 01:46:54;;;;;;;5.85;1.70;;;;;;;9.30;78.83;99001.00;5091784;28;20562;-67
2022/04/07 01:49:23;;;;;;;5.07;1.42;;;;;;;9.30;79.06;98989.63;5090416;28;20036;-67
2022/04/07 01:51:50;;;;;;;7.95;1.90;;;;;;;9.28;79.22;98988.84;5091732;28;20052;-67
2022/04/07 01:54:19;;;;;;;6.40;1.70;;;;;;;9.29;79.01;98993.19;5090635;28;20610;-68
2022/04/07 01:56:47;;;;;;;5.38;1.63;;;;;;;9.31;78.38;98972.91;5087835;28;20550;-68
2022/04/07 01:59:15;;;;;;;7.53;1.85;;;;;;;9.30;78.28;98973.84;5079192;28;20742;-68
2022/04/07 02:01:42;;;;;;;3.83;1.40;;;;;;;9.32;78.36;98966.72;5092289;28;20040;-68
2022/04/07 02:04:10;;;;;;;5.50;1.70;;;;;;;9.32;78.71;98962.28;5092573;28;20052;-69
2022/04/07 02:06:37;;;;;;;4.43;1.30;;;;;;;9.35;78.32;98952.53;5092407;28;20415;-69
2022/04/07 02:09:05;;;;;;;4.30;1.33;;;;;;;9.35;78.19;98952.53;5093343;28;20400;-69
2022/04/07 02:11:32;;;;;;;4.40;1.40;;;;;;;9.37;78.07;98942.78;5091853;28;20517;-68
2022/04/07 02:14:03;;;;;;;7.88;1.63;;;;;;;9.37;78.23;98946.25;5091855;28;20531;-68
2022/04/07 02:16:30;;;;;;;5.85;1.80;;;;;;;9.40;77.76;98940.00;5091562;28;20144;-67
2022/04/07 02:18:58;;;;;;;8.25;1.92;;;;;;;9.40;77.97;98937.38;5091266;28;20040;-68
2022/04/07 02:21:26;;;;;;;4.88;1.50;;;;;;;9.41;77.83;98928.56;5091233;28;20041;-68
2022/04/07 02:23:53;;;;;;;6.40;1.63;;;;;;;9.41;77.80;98918.88;5090020;28;20036;-68
2022/04/07 02:26:20;;;;;;;5.60;1.73;;;;;;;9.42;77.78;98922.34;5090742;28;20053;-68
2022/04/07 02:28:47;;;;;;;6.88;1.95;;;;;;;9.42;78.06;98910.03;5091208;28;20539;-68
2022/04/07 02:31:14;;;;;;;6.00;1.75;;;;;;;9.43;77.86;98903.00;5090826;28;20510;-68
2022/04/07 02:33:41;;;;;;;6.10;1.88;;;;;;;9.43;77.80;98900.34;5090317;28;20447;-68
2022/04/07 02:36:10;;;;;;;7.93;2.30;;;;;;;9.44;77.92;98896.81;5090619;28;20109;-67
2022/04/07 02:38:37;;;;;;;6.00;2.38;;;;;;;9.43;77.70;98895.09;5090392;28;20036;-67
2022/04/07 02:41:04;;;;;;;5.13;2.00;;;;;;;9.39;77.46;98888.34;5091487;28;20223;-68
2022/04/07 02:43:32;;;;;;;8.60;2.38;;;;;;;9.33;77.70;98884.28;5088592;28;20110;-67
2022/04/07 02:45:59;;;;;;;8.95;2.38;;;;;;;9.33;77.75;98885.09;5091876;28;20482;-68
2022/04/07 02:48:26;;;;;;;6.25;2.20;;;;;;;9.33;77.96;98881.63;5089546;28;20055;-68
2022/04/07 02:50:53;;;;;;;9.30;2.60;;;;;;;9.36;77.74;98880.63;5090054;28;20041;-69
2022/04/07 02:53:20;;;;;;;6.93;2.25;;;;;;;9.37;77.89;98867.38;5090398;28;20044;-68
2022/04/07 02:55:47;;;;;;;8.90;2.15;;;;;;;9.36;77.85;98864.84;5091187;28;20546;-68
2022/04/07 02:58:16;;;;;;;8.68;2.03;;;;;;;9.38;77.97;98873.50;5091323;28;20036;-69
2022/04/07 03:00:43;;;;;;;6.75;2.03;;;;;;;9.39;78.08;98862.03;5090469;28;20129;-68
2022/04/07 03:03:10;;;;;;;2.90;1.45;;;;;;;9.36;77.87;98857.78;5091236;28;20055;-68
2022/04/07 03:05:37;;;;;;;8.70;1.63;;;;;;;9.31;77.69;98847.53;5088562;28;20048;-69
2022/04/07 03:08:05;;;;;;;7.88;2.00;;;;;;;9.24;78.04;98838.28;5089625;28;20071;-68
2022/04/07 03:10:33;;;;;;;8.77;1.98;;;;;;;9.15;78.40;98828.31;5090248;28;20041;-68
2022/04/07 03:13:00;;;;;;;9.73;2.30;;;;;;;9.06;78.54;98832.28;5089057;28;20437;-69
2022/04/07 03:15:28;;;;;;;7.07;2.13;;;;;;;8.99;78.71;98826.56;5089969;28;20040;-68
2022/04/07 03:17:55;;;;;;;6.93;1.83;;;;;;;8.97;78.88;98817.03;5085479;28;20028;-70
2022/04/07 03:20:22;;;;;;;12.40;2.15;;;;;;;8.99;78.61;98820.44;5090600;28;20036;-69
2022/04/07 03:22:49;;;;;;;6.15;1.73;;;;;;;8.98;78.92;98790.69;5090613;28;20040;-68
2022/04/07 03:25:16;;;;;;;6.75;1.90;;;;;;;9.04;78.85;98797.38;5088608;28;20095;-69
2022/04/07 03:27:43;;;;;;;6.85;2.00;;;;;;;9.10;78.56;98789.13;5082791;28;20037;-69
2022/04/07 03:30:11;;;;;;;7.28;2.30;;;;;;;9.16;78.67;98787.94;5087150;28;20076;-69
2022/04/07 03:32:38;;;;;;;8.55;2.00;;;;;;;9.24;77.67;98777.81;5090096;28;20520;-67
2022/04/07 03:35:05;;;;;;;10.68;2.05;;;;;;;9.28;77.97;98781.13;5089469;28;20569;-67
2022/04/07 03:37:33;;;;;;;9.20;2.20;;;;;;;9.32;77.79;98766.88;5091745;28;20040;-67
2022/04/07 03:40:00;;;;;;;6.13;1.88;;;;;;;9.36;77.18;98763.09;5090566;28;20040;-68
2022/04/07 03:42:27;;;;;;;8.68;2.22;;;;;;;9.41;76.83;98761.06;5088774;28;20043;-68
2022/04/07 03:44:54;;;;;;;10.90;1.98;;;;;;;9.44;76.63;98768.78;5093309;28;20044;-68
2022/04/07 03:47:21;;;;;;;7.47;1.70;;;;;;;9.46;76.71;98763.44;5094632;28;20979;-69
2022/04/07 03:49:48;;;;;;;6.88;1.98;;;;;;;9.50;75.84;98757.06;5092222;28;20110;-66
2022/04/07 03:52:15;;;;;;;9.55;1.77;;;;;;;9.53;75.70;98742.88;5092936;28;20778;-67
2022/04/07 03:54:42;;;;;;;9.20;2.55;;;;;;;9.55;75.53;98744.47;5093991;28;20090;-66
2022/04/07 03:57:10;;;;;;;8.95;2.05;;;;;;;9.57;75.61;98728.59;5094156;28;20430;-68
2022/04/07 03:59:39;;;;;;;10.05;1.92;;;;;;;9.59;75.61;98734.59;5092180;28;20049;-66
2022/04/07 04:02:07;;;;;;;10.15;1.70;;;;;;;9.61;75.45;98722.22;5091879;28;20068;-68
2022/04/07 04:04:34;;;;;;;8.00;1.63;;;;;;;9.64;75.20;98738.66;5092470;28;20040;-67
2022/04/07 04:07:03;;;;;;;7.18;1.58;;;;;;;9.69;74.69;98727.03;5094019;28;20128;-68
2022/04/07 04:09:32;;;;;;;6.82;1.55;;;;;;;9.71;74.04;98718.09;5092265;28;20048;-68
2022/04/07 04:12:00;;;;;;;6.85;1.73;;;;;;;9.72;73.47;98700.50;5088126;28;20503;-67
2022/04/07 04:14:27;;;;;;;8.05;1.80;;;;;;;9.73;73.55;98705.69;5091970;28;20052;-70
2022/04/07 04:16:54;;;;;;;6.40;1.60;;;;;;;9.76;73.83;98694.13;5094137;28;20119;-69
2022/04/07 04:19:21;;;;;;;7.47;1.60;;;;;;;9.76;73.13;98684.47;5082008;28;20033;-69
2022/04/07 04:21:50;;;;;;;6.38;1.58;;;;;;;9.78;72.33;98672.03;5092930;28;20122;-68
2022/04/07 04:24:17;;;;;;;8.73;1.52;;;;;;;9.79;72.90;98668.47;5088456;28;20076;-67
2022/04/07 04:26:44;;;;;;;5.55;1.23;;;;;;;9.76;73.49;98659.91;5091958;28;20061;-69
2022/04/07 04:29:12;;;;;;;4.63;1.38;;;;;;;9.74;72.92;98635.47;5091838;28;20064;-68
2022/04/07 04:31:39;;;;;;;6.85;1.30;;;;;;;9.73;73.09;98639.03;5082178;28;20506;-68
2022/04/07 04:34:06;;;;;;;7.53;1.27;;;;;;;9.70;73.64;98634.00;5083959;28;20049;-67
2022/04/07 04:36:34;;;;;;;6.03;1.48;;;;;;;9.67;73.82;98611.34;5082038;28;20036;-66
2022/04/07 04:39:03;;;;;;;7.15;1.60;;;;;;;9.65;73.46;98592.19;5083584;28;20123;-66
2022/04/07 04:41:30;;;;;;;7.85;1.30;;;;;;;9.62;73.39;98587.94;5087333;28;20083;-67
2022/04/07 04:44:00;;;;;;;3.17;1.02;;;;;;;9.63;73.67;98596.69;5091976;28;20107;-68
2022/04/07 04:46:28;;;;;;;5.93;1.60;;;;;;;9.60;73.85;98581.09;5091426;28;20037;-68
2022/04/07 04:48:55;;;;;;;4.65;1.38;;;;;;;9.59;73.83;98585.53;5075908;28;20039;-68
2022/04/07 04:51:22;;;;;;;4.78;1.33;;;;;;;9.62;74.40;98577.41;5087422;28;20047;-69
2022/04/07 04:53:49;;;;;;;3.78;1.40;;;;;;;9.71;74.49;98581.28;5091338;28;20110;-69
2022/04/07 04:56:16;;;;;;;5.10;1.13;;;;;;;9.81;73.82;98567.53;5090107;28;20033;-68
2022/04/07 04:58:43;;;;;;;5.68;1.75;;;;;;;9.90;73.87;98559.06;5092442;28;20044;-69
2022/04/07 05:01:10;;;;;;;6.50;1.40;;;;;;;9.97;73.81;98562.97;5086041;28;20725;-68
2022/04/07 05:03:37;;;;;;;5.45;1.27;;;;;;;10.06;73.47;98557.13;5094021;28;20039;-67
2022/04/07 05:06:04;;;;;;;4.53;1.55;;;;;;;10.09;73.57;98556.09;5091346;28;20048;-68
2022/04/07 05:08:32;;;;;;;5.40;1.60;;;;;;;10.09;73.86;98543.75;5087139;28;20039;-67
2022/04/07 05:10:59;;;;;;;3.47;1.25;;;;;;;10.08;74.03;98542.06;5090081;28;20223;-66
2022/04/07 05:13:26;;;;;;;3.33;1.52;;;;;;;10.06;74.45;98548.38;5092752;28;20075;-68
2022/04/07 05:15:53;;;;;;;3.72;1.40;;;;;;;10.05;74.81;98528.25;5091622;28;20051;-68
2022/04/07 05:18:20;;;;;;;3.85;1.27;;;;;;;10.00;75.36;98512.78;5082025;28;20033;-67
2022/04/07 05:20:47;;;;;;;8.02;1.50;;;;;;;9.97;75.76;98507.69;5087357;28;20070;-68
2022/04/07 05:23:14;;;;;;;3.40;1.10;;;;;;;9.94;76.01;98495.59;5086255;28;20044;-67
2022/04/07 05:25:42;;;;;;;4.60;1.45;;;;;;;9.86;76.15;98511.03;5080449;28;20044;-69
2022/04/07 05:28:09;;;;;;;4.47;1.20;;;;;;;9.81;76.65;98496.47;5083270;28;20076;-67
2022/04/07 05:30:36;;;;;;;3.92;1.33;;;;;;;9.74;77.09;98501.28;5081970;28;20043;-67
2022/04/07 05:33:04;;;;;;;3.65;1.30;;;;;;;9.68;77.50;98501.69;5079922;28;20998;-68
2022/04/07 05:35:31;;;;;;;2.45;1.23;;;;;;;9.63;77.69;98489.66;5086230;28;20068;-67
2022/04/07 05:38:03;;;;;;;3.55;1.20;;;;;;;9.62;77.89;98487.97;5084261;28;20049;-68
2022/04/07 05:40:30;;;;;;;2.80;1.15;;;;;;;9.61;78.09;98485.47;5083665;28;20139;-69
2022/04/07 05:42:59;;;;;;;1.92;1.00;;;;;;;9.63;78.30;98470.44;5079297;28;20045;-68
2022/04/07 05:45:26;;;;;;;3.35;1.42;;;;;;;9.61;78.14;98469.66;5090603;28;20044;-68
2022/04/07 05:47:54;;;;;;;15.52;5.57;;;;;;;9.62;78.21;98461.66;5086986;28;20037;-69
2022/04/07 05:50:22;;;;;;;257.10;95.78;;;;;;;9.62;78.41;98448.53;5088213;28;20043;-67
2022/04/07 05:52:49;;;;;;;4.75;3.25;;;;;;;9.65;78.48;98444.88;5088800;28;20506;-67
2022/04/07 05:55:16;;;;;;;6.60;5.88;;;;;;;9.67;78.55;98447.38;5084538;28;20056;-68
2022/04/07 05:57:43;;;;;;;5.68;4.13;;;;;;;9.69;78.70;98432.34;5080262;28;20041;-67
2022/04/07 06:00:18;;;;;;;4.00;2.60;;;;;;;9.68;78.63;98426.22;5077706;28;20080;-67
2022/04/07 06:02:46;;;;;;;5.82;4.03;;;;;;;9.64;78.58;98416.88;5091605;28;20044;-68
2022/04/07 06:05:18;;;;;;;7.25;6.05;;;;;;;9.62;78.62;98410.84;5090042;28;20043;-67
2022/04/07 06:07:46;;;;;;;5.45;2.70;;;;;;;9.61;78.29;98398.66;5075918;28;20538;-66
2022/04/07 06:10:14;;;;;;;5.45;3.25;;;;;;;9.60;78.34;98403.06;5088325;28;20144;-67
2022/04/07 06:12:46;;;;;;;4.97;2.00;;;;;;;9.62;78.13;98395.06;5092012;28;20024;-67
2022/04/07 06:15:13;;;;;;;3.53;1.55;;;;;;;9.59;78.21;98393.50;5074470;28;20493;-67
2022/04/07 06:17:50;;;;;;;3.78;1.48;;;;;;;9.59;78.41;98379.47;5072867;28;20037;-67
2022/04/07 06:20:18;;;;;;;2.47;1.40;;;;;;;9.56;78.40;98369.19;5076396;28;20047;-67
2022/04/07 06:22:45;;;;;;;6.00;1.67;;;;;;;9.55;78.88;98372.75;5092377;28;20048;-66
2022/04/07 06:25:13;;;;;;;5.53;1.50;;;;;;;9.51;78.95;98358.97;5091443;28;20502;-67
2022/04/07 06:27:46;;;;;;;4.20;2.08;;;;;;;9.50;78.92;98359.91;5092082;28;20053;-67
2022/04/07 06:30:19;;;;;;;6.32;1.70;;;;;;;9.49;79.12;98355.59;5092522;28;20124;-67
2022/04/07 06:33:12;;;;;;;5.50;1.48;;;;;;;9.45;79.24;98346.19;5092211;28;20037;-66
2022/04/07 06:35:39;;;;;;;3.35;1.40;;;;;;;9.43;79.63;98337.56;5093065;28;20037;-67
2022/04/07 06:38:06;;;;;;;5.55;1.40;;;;;;;9.45;79.65;98333.06;5092561;28;20048;-67
2022/04/07 06:40:34;;;;;;;4.15;1.25;;;;;;;9.46;79.84;98330.31;5092086;28;20048;-66
2022/04/07 06:43:01;;;;;;;4.90;1.20;;;;;;;9.47;79.75;98321.47;5091819;28;20040;-67
2022/04/07 06:45:29;;;;;;;5.32;1.40;;;;;;;9.50;79.68;98323.09;5092598;28;20045;-67
2022/04/07 06:47:56;;;;;;;6.53;1.10;;;;;;;9.48;79.73;98306.56;5092513;28;20035;-68
2022/04/07 06:50:25;;;;;;;7.47;1.20;;;;;;;9.48;79.56;98304.75;5092183;28;20111;-67
2022/04/07 06:52:55;;;;;;;3.50;1.00;;;;;;;9.46;79.37;98309.28;5091886;28;20570;-67
2022/04/07 06:55:23;;;;;;;5.00;1.10;;;;;;;9.47;79.52;98291.72;5092008;28;20036;-67
2022/04/07 06:57:53;;;;;;;3.28;1.00;;;;;;;9.44;79.58;98291.91;5092259;28;20063;-68
2022/04/07 07:00:26;;;;;;;4.78;1.00;;;;;;;9.43;79.58;98285.84;5092202;28;20071;-67
2022/04/07 07:02:55;;;;;;;4.82;1.20;;;;;;;9.51;79.54;98266.06;5091981;28;20051;-68
2022/04/07 07:05:29;;;;;;;5.85;1.20;;;;;;;9.66;79.20;98267.66;5071486;28;20037;-66
2022/04/07 07:07:56;;;;;;;2.70;1.05;;;;;;;9.76;79.14;98252.94;5071908;28;20049;-68
2022/04/07 07:10:29;;;;;;;10.05;1.55;;;;;;;9.83;78.88;98258.59;5071613;28;20045;-68
2022/04/07 07:12:59;;;;;;;4.53;1.10;;;;;;;9.81;78.88;98252.63;5071230;28;20041;-67
2022/04/07 07:15:27;;;;;;;5.93;1.10;;;;;;;9.79;78.73;98236.09;5071714;28;20037;-66
2022/04/07 07:17:54;;;;;;;5.50;1.25;;;;;;;9.82;78.64;98227.16;5054886;28;20482;-67
2022/04/07 07:20:22;;;;;;;4.55;1.25;;;;;;;9.91;78.75;98210.72;5075316;28;20447;-68
2022/04/07 07:22:49;;;;;;;3.50;0.90;;;;;;;9.91;78.62;98197.56;5075368;28;20098;-66
2022/04/07 07:25:16;;;;;;;4.38;1.10;;;;;;;9.85;78.94;98201.47;5093894;28;20115;-66
2022/04/07 07:27:46;;;;;;;5.45;1.33;;;;;;;9.78;79.47;98190.50;5095325;28;20056;-66
2022/04/07 07:30:16;;;;;;;3.33;1.00;;;;;;;9.74;79.38;98181.16;5095332;28;20048;-67
2022/04/07 07:32:46;;;;;;;2.55;0.98;;;;;;;9.70;79.79;98174.44;5095398;28;20051;-67
2022/04/07 07:35:17;;;;;;;3.92;1.02;;;;;;;9.64;79.98;98159.91;5095733;28;20051;-66
2022/04/07 07:37:59;;;;;;;3.28;0.98;;;;;;;9.61;80.21;98151.38;5094745;28;20548;-67
2022/04/07 07:40:32;;;;;;;3.28;1.25;;;;;;;9.59;80.33;98130.47;5097079;28;20049;-67
2022/04/07 07:43:01;;;;;;;4.45;1.00;;;;;;;9.57;80.50;98121.84;5096497;28;20036;-68
2022/04/07 07:45:35;;;;;;;2.75;1.17;;;;;;;9.63;80.52;98121.41;5095360;28;20068;-66
2022/04/07 07:48:28;;;;;;;6.03;3.42;;;;;;;9.65;80.85;98095.00;5076273;28;20041;-67
2022/04/07 07:50:57;;;;;;;6.55;4.82;;;;;;;9.62;81.02;98084.69;5074783;28;20041;-67
2022/04/07 07:53:31;;;;;;;7.88;4.50;;;;;;;9.65;81.05;98092.38;5077248;28;21047;-67
2022/04/07 07:55:58;;;;;;;2.13;1.73;;;;;;;9.62;81.38;98082.88;5095161;28;20032;-66
2022/04/07 07:58:25;;;;;;;2.47;1.40;;;;;;;9.59;81.52;98112.06;5094958;28;20787;-67
2022/04/07 08:00:53;;;;;;;2.13;1.17;;;;;;;9.50;82.32;98154.78;5094421;28;20055;-67
2022/04/07 08:03:20;;;;;;;0.47;0.22;;;;;;;9.05;73.93;98193.72;5094647;28;20508;-66
2022/04/07 08:05:48;;;;;;;3.08;0.60;;;;;;;7.86;76.25;98195.03;5094433;28;20549;-65
2022/04/07 08:08:16;;;;;;;6.47;1.33;;;;;;;-147.05;100.00;58721.66;5094669;28;20122;-65
2022/04/07 08:10:43;;;;;;;4.25;0.80;;;;;;;-147.05;100.00;58721.66;5101912;28;20049;-64
2022/04/07 08:13:14;;;;;;;5.18;0.90;;;;;;;-147.05;100.00;58721.66;5102027;28;20553;-66
2022/04/07 08:15:45;;;;;;;3.28;1.10;;;;;;;-147.05;100.00;58721.66;5102041;28;20041;-65
2022/04/07 08:18:12;;;;;;;3.60;1.25;;;;;;;-147.05;100.00;58721.66;5101855;28;20052;-65
2022/04/07 08:20:39;;;;;;;4.68;1.40;;;;;;;-147.05;100.00;58721.66;5099540;28;20037;-66
2022/04/07 08:23:06;;;;;;;3.33;1.45;;;;;;;-147.05;100.00;58721.66;5090007;28;20036;-67
2022/04/07 08:25:33;;;;;;;5.38;1.52;;;;;;;-147.05;100.00;58721.66;5100707;28;20062;-67
2022/04/07 08:28:02;;;;;;;1.77;1.48;;;;;;;-147.05;100.00;58721.66;5101506;28;20972;-66
2022/04/07 08:30:33;;;;;;;4.53;1.65;;;;;;;-147.05;100.00;58721.66;5101393;28;20044;-66
2022/04/07 08:33:02;;;;;;;7.22;2.20;;;;;;;-147.05;100.00;58721.66;5101150;28;20040;-67
2022/04/07 08:35:30;;;;;;;3.53;1.88;;;;;;;-147.05;100.00;58721.66;5100977;28;20044;-66
2022/04/07 08:37:57;;;;;;;4.90;2.20;;;;;;;-147.05;100.00;58721.66;5101413;28;20092;-67
2022/04/07 08:40:24;;;;;;;5.25;2.08;;;;;;;-147.05;100.00;58721.66;5082584;28;20044;-67
2022/04/07 08:42:52;;;;;;;4.75;1.75;;;;;;;-147.05;100.00;58721.66;5081014;28;20033;-67
2022/04/07 08:45:20;;;;;;;6.00;2.10;;;;;;;-147.05;100.00;58721.66;5095411;28;20520;-66
2022/04/07 08:47:48;;;;;;;4.63;2.28;;;;;;;-147.05;100.00;58721.66;5101277;28;20048;-67
2022/04/07 08:50:22;;;;;;;6.43;2.58;;;;;;;-147.05;100.00;58721.66;5101029;28;20116;-67
2022/04/07 08:52:50;;;;;;;4.63;2.40;;;;;;;-147.05;100.00;58721.66;5101223;28;20045;-67
2022/04/07 08:55:17;;;;;;;9.15;2.38;;;;;;;-147.05;100.00;58721.66;5099874;28;20560;-67
2022/04/07 08:57:44;;;;;;;7.55;2.60;;;;;;;-147.05;100.00;58721.66;5096705;28;20091;-67
2022/04/07 09:00:11;;;;;;;9.10;4.93;;;;;;;-147.05;100.00;58721.66;5081097;28;20108;-65
2022/04/07 09:02:39;;;;;;;24.77;16.83;;;;;;;-147.05;100.00;58721.66;5080610;28;20128;-65
2022/04/07 09:05:11;;;;;;;21.27;14.32;;;;;;;-147.05;100.00;58721.66;5091674;28;20171;-65
2022/04/07 09:07:38;;;;;;;16.70;12.73;;;;;;;-147.05;100.00;58721.66;5101181;28;20127;-65
2022/04/07 09:10:07;;;;;;;11.48;5.18;;;;;;;-147.05;100.00;58721.66;5100953;28;20117;-65
2022/04/07 09:12:38;;;;;;;7.03;3.10;;;;;;;-147.05;100.00;58721.66;5099643;28;20040;-65
2022/04/07 09:15:06;;;;;;;6.70;2.40;;;;;;;-147.05;100.00;58721.66;5094215;28;20052;-66
2022/04/07 09:17:49;;;;;;;5.57;2.72;;;;;;;-147.05;100.00;58721.66;5095412;28;20045;-66
2022/04/07 09:20:16;;;;;;;4.80;2.10;;;;;;;-147.05;100.00;58721.66;5090347;28;20075;-66
2022/04/07 09:22:43;;;;;;;5.35;1.65;;;;;;;-147.05;100.00;58721.66;5099217;28;21056;-66
2022/04/07 09:25:12;;;;;;;6.07;1.98;;;;;;;-147.05;100.00;58721.66;5096914;28;20043;-66
2022/04/07 09:27:41;;;;;;;3.78;2.40;;;;;;;-147.05;100.00;58721.66;5097688;28;20058;-66
2022/04/07 09:30:09;;;;;;;7.28;2.05;;;;;;;-147.05;100.00;58721.66;5098479;28;20040;-66
2022/04/07 09:32:43;;;;;;;4.82;1.70;;;;;;;-147.05;100.00;58721.66;5097766;28;20052;-66
2022/04/07 09:35:11;;;;;;;6.20;1.95;;;;;;;-147.05;100.00;58721.66;5084166;28;20041;-65
2022/04/07 09:37:40;;;;;;;6.53;2.45;;;;;;;-147.05;100.00;58721.66;5090945;28;20043;-67
2022/04/07 09:40:09;;;;;;;5.15;2.20;;;;;;;-147.05;100.00;58721.66;5099664;28;20068;-66
2022/04/07 09:42:37;;;;;;;4.78;1.50;;;;;;;-147.05;100.00;58721.66;5099984;28;20200;-67
2022/04/07 09:45:07;;;;;;;4.65;1.35;;;;;;;-147.05;100.00;58721.66;5099374;28;20056;-66
2022/04/07 09:47:46;;;;;;;4.93;1.35;;;;;;;-147.05;100.00;58721.66;5095772;28;20082;-67
2022/04/07 09:50:31;;;;;;;3.80;1.30;;;;;;;-147.05;100.00;58721.66;5099613;28;20112;-66
2022/04/07 09:52:59;;;;;;;;;;;;;;;-147.05;100.00;58721.66;5100468;28;20048;-66
2022/04/07 09:55:29;;;;;;;5.53;1.20;;;;;;;-147.05;100.00;58721.66;5099161;28;19928;-67
2022/04/07 09:57:58;;;;;;;6.88;1.27;;;;;;;-147.05;100.00;58721.66;5099923;28;20049;-68
2022/04/07 10:00:26;;;;;;;5.50;1.17;;;;;;;-147.05;100.00;58721.66;5099653;28;20060;-67
2022/04/07 10:02:53;;;;;;;6.00;0.90;;;;;;;-147.05;100.00;58721.66;5100097;28;20094;-67
2022/04/07 10:05:22;;;;;;;4.80;1.13;;;;;;;-147.05;100.00;58721.66;5098110;28;20059;-67
2022/04/07 10:07:50;;;;;;;5.97;1.00;;;;;;;-147.05;100.00;58721.66;5099052;28;20507;-67
2022/04/07 10:10:18;;;;;;;4.35;1.25;;;;;;;-147.05;100.00;58721.66;5099599;28;20028;-67
2022/04/07 10:12:46;;;;;;;4.78;1.02;;;;;;;-147.05;100.00;58721.66;5100126;28;20037;-67
2022/04/07 10:15:17;;;;;;;3.05;1.08;;;;;;;-147.05;100.00;58721.66;5098918;28;20047;-67
2022/04/07 10:17:45;;;;;;;4.50;0.80;;;;;;;-147.05;100.00;58721.66;5094626;28;20052;-66
2022/04/07 10:20:15;;;;;;;5.60;0.90;;;;;;;-147.05;100.00;58721.66;5089756;28;20422;-67
2022/04/07 10:22:51;;;;;;;2.63;0.85;;;;;;;-147.05;100.00;58721.66;5099389;28;20089;-67
2022/04/07 10:25:22;;;;;;;5.15;1.10;;;;;;;-147.05;100.00;58721.66;5094559;28;20045;-67
2022/04/07 10:27:52;;;;;;;4.95;0.85;;;;;;;-147.05;100.00;58721.66;5083917;28;20526;-67
2022/04/07 10:30:21;;;;;;;3.10;0.60;;;;;;;-147.05;100.00;58721.66;5088519;28;20064;-68
2022/04/07 10:32:50;;;;;;;5.68;3.33;;;;;;;-147.05;100.00;58721.66;5095370;28;20041;-68
2022/04/07 10:35:29;;;;;;;9.02;1.42;;;;;;;-147.05;100.00;58721.66;5094762;28;20595;-68
2022/04/07 10:38:01;;;;;;;4.25;1.10;;;;;;;-147.05;100.00;58721.66;5098759;28;20032;-68
2022/04/07 10:40:34;;;;;;;4.50;0.93;;;;;;;-147.05;100.00;58721.66;5098263;28;20114;-67
2022/04/07 10:43:18;;;;;;;5.25;1.13;;;;;;;-147.05;100.00;58721.66;5086524;28;20118;-68
2022/04/07 10:46:02;;;;;;;4.93;0.90;;;;;;;-147.05;100.00;58721.66;5096637;28;20086;-68
2022/04/07 10:48:59;;;;;;;9.82;1.70;;;;;;;-147.05;100.00;58721.66;5097950;28;20246;-67
2022/04/07 10:51:49;;;;;;;5.05;1.10;;;;;;;-147.05;100.00;58721.66;5096313;28;20052;-68
2022/04/07 10:54:17;;;;;;;8.35;1.17;;;;;;;-147.05;100.00;58721.66;5091084;28;20051;-67
2022/04/07 10:56:49;;;;;;;5.57;1.30;;;;;;;-147.05;100.00;58721.66;5098569;28;20554;-67
2022/04/07 10:59:17;;;;;;;4.38;0.77;;;;;;;-147.05;100.00;58721.66;5095075;28;20086;-68
2022/04/07 11:01:58;;;;;;;6.30;0.95;;;;;;;-147.05;100.00;58721.66;5092283;28;20040;-68
2022/04/07 11:04:25;;;;;;;6.55;0.80;;;;;;;-147.05;100.00;58721.66;5098882;28;20040;-67
2022/04/07 11:07:04;;;;;;;8.75;1.30;;;;;;;-147.05;100.00;58721.66;5098380;28;20437;-67
2022/04/07 11:09:54;;;;;;;6.93;1.52;;;;;;;-147.05;100.00;58721.66;5098621;28;20090;-68
2022/04/07 11:12:22;;;;;;;6.68;1.40;;;;;;;-147.05;100.00;58721.66;5098691;28;20111;-68
2022/04/07 11:14:55;;;;;;;8.20;1.00;;;;;;;-147.05;100.00;58721.66;5098189;28;20048;-68
2022/04/07 11:17:33;;;;;;;6.88;1.00;;;;;;;-147.05;100.00;58721.66;5096300;28;20537;-67
2022/04/07 11:20:15;;;;;;;9.23;1.48;;;;;;;-147.05;100.00;58721.66;5097454;28;20037;-68
2022/04/07 11:23:04;;;;;;;5.55;1.65;;;;;;;-147.05;100.00;58721.66;5096353;28;20067;-67
2022/04/07 11:25:43;;;;;;;11.90;1.60;;;;;;;-147.05;100.00;58721.66;5082703;28;20077;-67
2022/04/07 11:28:17;;;;;;;6.70;1.08;;;;;;;-147.05;100.00;58721.66;5094176;28;20047;-68
2022/04/07 11:30:50;;;;;;;15.43;2.13;;;;;;;-147.05;100.00;58721.66;5098650;28;20151;-68
2022/04/07 11:33:19;;;;;;;6.50;1.15;;;;;;;-147.05;100.00;58721.66;5095098;28;20045;-68
2022/04/07 11:36:02;;;;;;;6.80;1.35;;;;;;;-147.05;100.00;58721.66;5090434;28;20123;-68
2022/04/07 11:38:29;;;;;;;7.50;1.45;;;;;;;-147.05;100.00;58721.66;5093976;28;20120;-68
2022/04/07 11:41:08;;;;;;;7.30;1.48;;;;;;;-147.05;100.00;58721.66;5098645;28;20040;-67
2022/04/07 11:43:37;;;;;;;16.52;1.60;;;;;;;-147.05;100.00;58721.66;5093857;28;20037;-67